Atoka, OK

1:54 PM CST on December 17, 2014 (GMT -0600)
Atoka Municipal | Change Station
CLOSE
Current Station
Airport
Location: Atoka,
Elevation: 591 ft
Nearby Weather Stations

Elev 591 ft 34.40 °N, 96.15 °W | Updated 19 minutes ago

Rain
Rain
36 °F
Feels Like 31 °F
N
6
Wind Variable Wind from ESE
Gusts 16 mph

Today
High -- | Low -- °F
--% Chance of Precip.
Yesterday
High -- | Low -- °F
Precip. -- in
7:24 AM 5:16 PM
Waning Crescent, 20% visible
Pressure 30.18 in
Visibility 4.0 miles
Clouds Mostly Cloudy 700 ft
Mostly Cloudy 2300 ft
Overcast 10000 ft
Windchill 31 °F
Dew Point 36 °F
Humidity 100%
Rainfall 0.18 in
Snow Depth Not available.
UV 1 out of 12
Pollen 8.20 out of 12
Air Quality Not available.
Flu Activity Not available.
METAR KAQR 171935Z AUTO 12005G14KT 4SM RA BKN007 BKN023 OVC100 02/02 A3018 RMK AO2 P0003 LTG DSNT W

More Conditions Fewer Conditions

Pressure 30.18 in
Visibility 4.0 miles
Clouds Mostly Cloudy 700 ft
Mostly Cloudy 2300 ft
Overcast 10000 ft
Windchill 31 °F
Dew Point 36 °F
Humidity 100%
Rainfall 0.18 in
Snow Depth Not available.
UV 1 out of 12
Pollen 8.20 out of 12
Air Quality Not available.
Flu Activity Not available.
METAR KAQR 171935Z AUTO 12005G14KT 4SM RA BKN007 BKN023 OVC100 02/02 A3018 RMK AO2 P0003 LTG DSNT W

More Conditions Fewer Conditions

10-Day Weather Forecast

Almanac

Astronomy

Dec. 17, 2014 Rise Set
Actual Time
Civil Twilight
Nautical Twilight
Astronomical Twilight
Moon
Length of Visible Light
Length of Day
Tomorrow will be .
, % of the Moon is Illuminated

Today's Extremes

State Highs State Lows

Community

WunderPhotos

Upload Photos

1,778,797 photos uploaded!

WunderBlogs® & News

Nearby

Air Quality

  Air Quality AQ Index Pollutant
Not available.

Snow Depth

Station Depth Elevation

Earthquake Activity

City Distance Mag. Time & Date
Minimum magnitude displayed is 2.5.

Coastal Water Temperatures

Place Temperature

Nearby Weather Stations